CU-0018 weather

Los Mangos de Baragua Airport
Santiago de Cuba, Cuba

Public forecast

Using degrees Celsius for public forecast. Weather courtesy of forecast.io.

METAR (pilot weather report)

Closest report is Frank Pais International Airport, 27.3 nm (50.6 km) NW. Retrieved 2019/05/25 05:50 UTC (55 minutes ago):

MUHG 250550Z 11005KT 7000 VCFG SKC 23/22 Q1014

TAF (pilot weather forecast)

Closest forecast is Frank Pais International Airport, 27.3 nm (50.6 km) NW. Retrieved 2019/05/25 06:01 UTC (44 minutes ago):

TAF MUHG 250500Z 2506/2600 VRB03KT 9000 SCT020 BECMG 2515/2517 07012KT TEMPO 2518/2524 5000 SHRA SCT018CB BKN040